CLT weather

Charlotte Douglas International Airport
Charlotte, North Carolina, United States

Public forecast

Using degrees Fahrenheit for public forecast. Weather courtesy of forecast.io.

METAR (pilot weather report)

Retrieved 2017/07/23 03:52 UTC (22 minutes ago):

KCLT 230352Z 22006KT 10SM FEW080 SCT250 29/22 A2993 RMK AO2 SLP123 T02890222

TAF (pilot weather forecast)

Forecast is more than 12 hours old.

Retrieved 2017/07/22 00:30 UTC (1 day ago):

TAF KCLT 222329Z 2300/2324 22005KT P6SM FEW070 SCT250 FM230300 21004KT P6SM SCT250 FM231700 22010KT P6SM SCT060 BKN250 PROB30 2319/2324 4SM -TSRA OVC040CB